sensor_id;sensor_type;location;lat;lon;timestamp;P1;durP1;ratioP1;P2;durP2;ratioP2
35803;SDS011;21924;51.934;7.414;2023-05-31T00:00:44;20.00;;;9.63;;
35803;SDS011;21924;51.934;7.414;2023-05-31T00:03:28;14.70;;;8.00;;
35803;SDS011;21924;51.934;7.414;2023-05-31T00:06:13;13.57;;;7.72;;
35803;SDS011;21924;51.934;7.414;2023-05-31T00:08:57;14.80;;;7.88;;
35803;SDS011;21924;51.934;7.414;2023-05-31T00:11:41;15.80;;;8.00;;
35803;SDS011;21924;51.934;7.414;2023-05-31T00:14:26;14.20;;;7.78;;
35803;SDS011;21924;51.934;7.414;2023-05-31T00:17:10;15.73;;;8.68;;
35803;SDS011;21924;51.934;7.414;2023-05-31T00:19:55;15.55;;;7.57;;
35803;SDS011;21924;51.934;7.414;2023-05-31T00:22:39;17.73;;;8.55;;
35803;SDS011;21924;51.934;7.414;2023-05-31T00:25:23;16.38;;;7.97;;
35803;SDS011;21924;51.934;7.414;2023-05-31T00:28:07;17.20;;;8.23;;
35803;SDS011;21924;51.934;7.414;2023-05-31T00:30:52;14.32;;;7.78;;
35803;SDS011;21924;51.934;7.414;2023-05-31T00:33:36;14.52;;;7.90;;
35803;SDS011;21924;51.934;7.414;2023-05-31T00:36:20;20.30;;;8.27;;
35803;SDS011;21924;51.934;7.414;2023-05-31T00:39:05;18.23;;;9.30;;
35803;SDS011;21924;51.934;7.414;2023-05-31T00:41:49;14.70;;;8.45;;
35803;SDS011;21924;51.934;7.414;2023-05-31T00:44:34;18.77;;;8.35;;
35803;SDS011;21924;51.934;7.414;2023-05-31T00:47:19;18.33;;;8.23;;
35803;SDS011;21924;51.934;7.414;2023-05-31T00:50:04;18.50;;;8.88;;
35803;SDS011;21924;51.934;7.414;2023-05-31T00:52:50;16.13;;;8.70;;
35803;SDS011;21924;51.934;7.414;2023-05-31T00:55:36;15.30;;;8.13;;
35803;SDS011;21924;51.934;7.414;2023-05-31T00:58:22;16.88;;;8.27;;
35803;SDS011;21924;51.934;7.414;2023-05-31T01:01:07;19.23;;;8.55;;
35803;SDS011;21924;51.934;7.414;2023-05-31T01:03:55;18.63;;;8.43;;
35803;SDS011;21924;51.934;7.414;2023-05-31T01:06:40;14.23;;;8.70;;
35803;SDS011;21924;51.934;7.414;2023-05-31T01:09:24;19.85;;;9.27;;
35803;SDS011;21924;51.934;7.414;2023-05-31T01:15:24;17.75;;;9.07;;
35803;SDS011;21924;51.934;7.414;2023-05-31T01:18:14;17.95;;;9.27;;
35803;SDS011;21924;51.934;7.414;2023-05-31T01:21:11;17.88;;;8.55;;
35803;SDS011;21924;51.934;7.414;2023-05-31T01:26:59;21.80;;;9.02;;
35803;SDS011;21924;51.934;7.414;2023-05-31T01:32:30;22.23;;;9.93;;
35803;SDS011;21924;51.934;7.414;2023-05-31T01:35:16;22.05;;;9.75;;
35803;SDS011;21924;51.934;7.414;2023-05-31T01:38:01;18.23;;;9.30;;
35803;SDS011;21924;51.934;7.414;2023-05-31T01:40:46;19.08;;;9.32;;
35803;SDS011;21924;51.934;7.414;2023-05-31T01:43:30;20.75;;;9.98;;
35803;SDS011;21924;51.934;7.414;2023-05-31T01:46:14;21.38;;;10.05;;
35803;SDS011;21924;51.934;7.414;2023-05-31T01:49:01;19.00;;;10.40;;
35803;SDS011;21924;51.934;7.414;2023-05-31T01:51:46;22.55;;;10.80;;
35803;SDS011;21924;51.934;7.414;2023-05-31T01:54:30;25.73;;;9.20;;
35803;SDS011;21924;51.934;7.414;2023-05-31T01:57:14;27.98;;;11.30;;
35803;SDS011;21924;51.934;7.414;2023-05-31T01:59:59;23.80;;;10.45;;
35803;SDS011;21924;51.934;7.414;2023-05-31T02:02:47;22.27;;;9.68;;
35803;SDS011;21924;51.934;7.414;2023-05-31T02:05:33;20.55;;;9.60;;
35803;SDS011;21924;51.934;7.414;2023-05-31T02:08:18;24.20;;;11.93;;
35803;SDS011;21924;51.934;7.414;2023-05-31T02:11:02;18.85;;;9.98;;
35803;SDS011;21924;51.934;7.414;2023-05-31T02:13:47;24.23;;;9.93;;
35803;SDS011;21924;51.934;7.414;2023-05-31T02:16:31;20.38;;;9.32;;
35803;SDS011;21924;51.934;7.414;2023-05-31T02:19:15;18.65;;;9.68;;
35803;SDS011;21924;51.934;7.414;2023-05-31T02:21:59;21.20;;;10.40;;
35803;SDS011;21924;51.934;7.414;2023-05-31T02:24:44;24.90;;;9.63;;
35803;SDS011;21924;51.934;7.414;2023-05-31T02:27:29;24.85;;;11.43;;
35803;SDS011;21924;51.934;7.414;2023-05-31T02:30:13;25.65;;;10.80;;
35803;SDS011;21924;51.934;7.414;2023-05-31T02:32:57;25.98;;;10.93;;
35803;SDS011;21924;51.934;7.414;2023-05-31T02:35:43;21.23;;;9.30;;
35803;SDS011;21924;51.934;7.414;2023-05-31T02:38:27;20.60;;;10.30;;
35803;SDS011;21924;51.934;7.414;2023-05-31T02:41:12;20.73;;;10.57;;
35803;SDS011;21924;51.934;7.414;2023-05-31T02:43:57;26.23;;;11.27;;
35803;SDS011;21924;51.934;7.414;2023-05-31T02:46:42;18.85;;;10.13;;
35803;SDS011;21924;51.934;7.414;2023-05-31T02:49:27;25.88;;;9.65;;
35803;SDS011;21924;51.934;7.414;2023-05-31T02:52:11;22.85;;;10.20;;
35803;SDS011;21924;51.934;7.414;2023-05-31T02:54:55;26.25;;;12.00;;
35803;SDS011;21924;51.934;7.414;2023-05-31T02:57:40;21.95;;;9.63;;
35803;SDS011;21924;51.934;7.414;2023-05-31T03:00:24;23.55;;;12.20;;
35803;SDS011;21924;51.934;7.414;2023-05-31T03:03:09;26.30;;;10.57;;
35803;SDS011;21924;51.934;7.414;2023-05-31T03:05:56;28.25;;;11.32;;
35803;SDS011;21924;51.934;7.414;2023-05-31T03:08:40;26.02;;;11.77;;
35803;SDS011;21924;51.934;7.414;2023-05-31T03:11:24;21.52;;;10.30;;
35803;SDS011;21924;51.934;7.414;2023-05-31T03:14:09;27.63;;;11.43;;
35803;SDS011;21924;51.934;7.414;2023-05-31T03:16:53;25.83;;;11.35;;
35803;SDS011;21924;51.934;7.414;2023-05-31T03:19:38;25.55;;;10.90;;
35803;SDS011;21924;51.934;7.414;2023-05-31T03:22:23;21.90;;;10.10;;
35803;SDS011;21924;51.934;7.414;2023-05-31T03:25:08;22.23;;;10.95;;
35803;SDS011;21924;51.934;7.414;2023-05-31T03:27:53;26.67;;;10.45;;
35803;SDS011;21924;51.934;7.414;2023-05-31T03:30:38;24.73;;;11.18;;
35803;SDS011;21924;51.934;7.414;2023-05-31T03:33:22;27.50;;;11.45;;
35803;SDS011;21924;51.934;7.414;2023-05-31T03:36:07;20.73;;;10.27;;
35803;SDS011;21924;51.934;7.414;2023-05-31T03:38:51;25.40;;;10.85;;
35803;SDS011;21924;51.934;7.414;2023-05-31T03:41:35;29.00;;;11.88;;
35803;SDS011;21924;51.934;7.414;2023-05-31T03:44:19;32.95;;;11.13;;
35803;SDS011;21924;51.934;7.414;2023-05-31T03:47:04;27.95;;;10.93;;
35803;SDS011;21924;51.934;7.414;2023-05-31T03:49:48;29.00;;;11.45;;
35803;SDS011;21924;51.934;7.414;2023-05-31T03:52:33;24.33;;;11.55;;
35803;SDS011;21924;51.934;7.414;2023-05-31T03:55:17;27.80;;;10.68;;
35803;SDS011;21924;51.934;7.414;2023-05-31T03:58:02;29.88;;;12.10;;
35803;SDS011;21924;51.934;7.414;2023-05-31T04:00:46;26.02;;;10.45;;
35803;SDS011;21924;51.934;7.414;2023-05-31T04:03:30;27.73;;;11.75;;
35803;SDS011;21924;51.934;7.414;2023-05-31T04:06:14;25.48;;;10.50;;
35803;SDS011;21924;51.934;7.414;2023-05-31T04:08:58;25.95;;;12.52;;
35803;SDS011;21924;51.934;7.414;2023-05-31T04:11:44;24.98;;;10.95;;
35803;SDS011;21924;51.934;7.414;2023-05-31T04:14:28;24.45;;;10.65;;
35803;SDS011;21924;51.934;7.414;2023-05-31T04:17:13;28.02;;;10.65;;
35803;SDS011;21924;51.934;7.414;2023-05-31T04:19:57;25.55;;;11.88;;
35803;SDS011;21924;51.934;7.414;2023-05-31T04:22:41;26.80;;;11.45;;
35803;SDS011;21924;51.934;7.414;2023-05-31T04:25:25;25.35;;;10.30;;
35803;SDS011;21924;51.934;7.414;2023-05-31T04:28:11;27.20;;;11.23;;
35803;SDS011;21924;51.934;7.414;2023-05-31T04:30:56;19.95;;;10.02;;
35803;SDS011;21924;51.934;7.414;2023-05-31T04:33:40;25.30;;;10.63;;
35803;SDS011;21924;51.934;7.414;2023-05-31T04:36:26;26.88;;;10.02;;
35803;SDS011;21924;51.934;7.414;2023-05-31T04:39:10;23.85;;;10.02;;
35803;SDS011;21924;51.934;7.414;2023-05-31T04:41:58;20.65;;;9.30;;
35803;SDS011;21924;51.934;7.414;2023-05-31T04:44:43;23.55;;;10.60;;
35803;SDS011;21924;51.934;7.414;2023-05-31T04:47:27;22.92;;;9.48;;
35803;SDS011;21924;51.934;7.414;2023-05-31T04:50:12;22.95;;;9.15;;
35803;SDS011;21924;51.934;7.414;2023-05-31T04:52:56;22.08;;;9.30;;
35803;SDS011;21924;51.934;7.414;2023-05-31T04:55:41;24.08;;;9.73;;
35803;SDS011;21924;51.934;7.414;2023-05-31T04:58:25;24.02;;;10.13;;
35803;SDS011;21924;51.934;7.414;2023-05-31T05:01:10;25.50;;;10.10;;
35803;SDS011;21924;51.934;7.414;2023-05-31T05:03:58;23.38;;;9.80;;
35803;SDS011;21924;51.934;7.414;2023-05-31T05:06:43;23.38;;;9.52;;
35803;SDS011;21924;51.934;7.414;2023-05-31T05:09:27;20.45;;;9.00;;
35803;SDS011;21924;51.934;7.414;2023-05-31T05:12:12;21.27;;;9.20;;
35803;SDS011;21924;51.934;7.414;2023-05-31T05:14:56;20.40;;;8.88;;
35803;SDS011;21924;51.934;7.414;2023-05-31T05:17:40;23.52;;;10.50;;
35803;SDS011;21924;51.934;7.414;2023-05-31T05:20:25;25.80;;;9.35;;
35803;SDS011;21924;51.934;7.414;2023-05-31T05:23:09;22.38;;;9.02;;
35803;SDS011;21924;51.934;7.414;2023-05-31T05:25:54;22.67;;;10.63;;
35803;SDS011;21924;51.934;7.414;2023-05-31T05:28:38;22.65;;;9.32;;
35803;SDS011;21924;51.934;7.414;2023-05-31T05:31:22;18.88;;;9.15;;
35803;SDS011;21924;51.934;7.414;2023-05-31T05:34:07;20.50;;;9.07;;
35803;SDS011;21924;51.934;7.414;2023-05-31T05:36:53;16.25;;;8.48;;
35803;SDS011;21924;51.934;7.414;2023-05-31T05:39:37;21.52;;;8.68;;
35803;SDS011;21924;51.934;7.414;2023-05-31T05:42:21;26.13;;;9.68;;
35803;SDS011;21924;51.934;7.414;2023-05-31T05:45:07;17.63;;;8.70;;
35803;SDS011;21924;51.934;7.414;2023-05-31T05:47:52;17.92;;;8.45;;
35803;SDS011;21924;51.934;7.414;2023-05-31T05:50:39;19.05;;;7.13;;
35803;SDS011;21924;51.934;7.414;2023-05-31T05:53:23;17.45;;;8.20;;
35803;SDS011;21924;51.934;7.414;2023-05-31T05:56:07;17.23;;;8.98;;
35803;SDS011;21924;51.934;7.414;2023-05-31T05:58:52;16.08;;;7.70;;
35803;SDS011;21924;51.934;7.414;2023-05-31T06:01:36;19.50;;;7.32;;
35803;SDS011;21924;51.934;7.414;2023-05-31T06:04:20;15.23;;;7.30;;
35803;SDS011;21924;51.934;7.414;2023-05-31T06:07:05;15.90;;;6.60;;
35803;SDS011;21924;51.934;7.414;2023-05-31T06:09:49;24.27;;;8.98;;
35803;SDS011;21924;51.934;7.414;2023-05-31T06:12:34;19.02;;;8.05;;
35803;SDS011;21924;51.934;7.414;2023-05-31T06:15:18;22.05;;;8.20;;
35803;SDS011;21924;51.934;7.414;2023-05-31T06:18:02;19.10;;;8.25;;
35803;SDS011;21924;51.934;7.414;2023-05-31T06:20:46;20.17;;;8.00;;
35803;SDS011;21924;51.934;7.414;2023-05-31T06:23:30;18.40;;;7.47;;
35803;SDS011;21924;51.934;7.414;2023-05-31T06:26:15;21.27;;;7.75;;
35803;SDS011;21924;51.934;7.414;2023-05-31T06:28:59;21.48;;;7.38;;
35803;SDS011;21924;51.934;7.414;2023-05-31T06:31:43;22.23;;;8.70;;
35803;SDS011;21924;51.934;7.414;2023-05-31T06:34:28;23.42;;;7.40;;
35803;SDS011;21924;51.934;7.414;2023-05-31T06:37:12;28.05;;;8.98;;
35803;SDS011;21924;51.934;7.414;2023-05-31T06:39:57;20.02;;;8.18;;
35803;SDS011;21924;51.934;7.414;2023-05-31T06:42:41;19.45;;;7.20;;
35803;SDS011;21924;51.934;7.414;2023-05-31T06:45:25;19.92;;;8.57;;
35803;SDS011;21924;51.934;7.414;2023-05-31T06:48:10;19.73;;;7.65;;
35803;SDS011;21924;51.934;7.414;2023-05-31T06:50:54;18.30;;;7.68;;
35803;SDS011;21924;51.934;7.414;2023-05-31T06:53:38;14.23;;;7.70;;
35803;SDS011;21924;51.934;7.414;2023-05-31T06:56:22;19.73;;;8.68;;
35803;SDS011;21924;51.934;7.414;2023-05-31T06:59:07;23.25;;;9.18;;
35803;SDS011;21924;51.934;7.414;2023-05-31T07:01:51;18.65;;;8.23;;
35803;SDS011;21924;51.934;7.414;2023-05-31T07:04:36;22.17;;;8.05;;
35803;SDS011;21924;51.934;7.414;2023-05-31T07:07:20;16.77;;;8.00;;
35803;SDS011;21924;51.934;7.414;2023-05-31T07:10:04;17.85;;;7.43;;
35803;SDS011;21924;51.934;7.414;2023-05-31T07:12:49;18.95;;;7.55;;
35803;SDS011;21924;51.934;7.414;2023-05-31T07:15:34;22.88;;;7.70;;
35803;SDS011;21924;51.934;7.414;2023-05-31T07:18:18;18.10;;;7.72;;
35803;SDS011;21924;51.934;7.414;2023-05-31T07:21:03;14.73;;;8.05;;
35803;SDS011;21924;51.934;7.414;2023-05-31T07:23:47;18.60;;;7.68;;
35803;SDS011;21924;51.934;7.414;2023-05-31T07:26:32;15.45;;;6.80;;
35803;SDS011;21924;51.934;7.414;2023-05-31T07:29:16;22.48;;;8.38;;
35803;SDS011;21924;51.934;7.414;2023-05-31T07:32:00;19.65;;;7.50;;
35803;SDS011;21924;51.934;7.414;2023-05-31T07:34:45;18.70;;;7.15;;
35803;SDS011;21924;51.934;7.414;2023-05-31T07:37:29;21.42;;;7.63;;
35803;SDS011;21924;51.934;7.414;2023-05-31T07:40:13;16.13;;;7.45;;
35803;SDS011;21924;51.934;7.414;2023-05-31T07:42:59;16.88;;;7.22;;
35803;SDS011;21924;51.934;7.414;2023-05-31T07:45:43;17.40;;;7.18;;
35803;SDS011;21924;51.934;7.414;2023-05-31T07:48:27;21.50;;;6.50;;
35803;SDS011;21924;51.934;7.414;2023-05-31T07:51:12;14.85;;;6.25;;
35803;SDS011;21924;51.934;7.414;2023-05-31T07:53:56;17.65;;;5.93;;
35803;SDS011;21924;51.934;7.414;2023-05-31T07:56:40;17.10;;;6.45;;
35803;SDS011;21924;51.934;7.414;2023-05-31T07:59:24;16.50;;;6.47;;
35803;SDS011;21924;51.934;7.414;2023-05-31T08:02:09;18.48;;;6.07;;
35803;SDS011;21924;51.934;7.414;2023-05-31T08:04:53;17.55;;;6.68;;
35803;SDS011;21924;51.934;7.414;2023-05-31T08:07:38;16.13;;;5.68;;
35803;SDS011;21924;51.934;7.414;2023-05-31T08:10:22;13.80;;;5.55;;
35803;SDS011;21924;51.934;7.414;2023-05-31T08:13:06;11.13;;;5.53;;
35803;SDS011;21924;51.934;7.414;2023-05-31T08:15:50;13.80;;;5.95;;
35803;SDS011;21924;51.934;7.414;2023-05-31T08:18:35;14.43;;;6.00;;
35803;SDS011;21924;51.934;7.414;2023-05-31T08:21:19;13.57;;;5.30;;
35803;SDS011;21924;51.934;7.414;2023-05-31T08:24:04;17.45;;;6.00;;
35803;SDS011;21924;51.934;7.414;2023-05-31T08:26:51;18.55;;;6.43;;
35803;SDS011;21924;51.934;7.414;2023-05-31T08:29:36;15.75;;;5.75;;
35803;SDS011;21924;51.934;7.414;2023-05-31T08:32:20;14.32;;;4.93;;
35803;SDS011;21924;51.934;7.414;2023-05-31T08:35:04;12.63;;;4.70;;
35803;SDS011;21924;51.934;7.414;2023-05-31T08:37:52;9.48;;;4.40;;
35803;SDS011;21924;51.934;7.414;2023-05-31T08:40:38;10.45;;;4.70;;
35803;SDS011;21924;51.934;7.414;2023-05-31T08:43:23;10.00;;;4.87;;
35803;SDS011;21924;51.934;7.414;2023-05-31T08:48:57;14.27;;;4.57;;
35803;SDS011;21924;51.934;7.414;2023-05-31T08:51:45;9.70;;;5.32;;
35803;SDS011;21924;51.934;7.414;2023-05-31T08:54:32;20.98;;;5.25;;
35803;SDS011;21924;51.934;7.414;2023-05-31T08:57:18;9.80;;;4.47;;
35803;SDS011;21924;51.934;7.414;2023-05-31T09:00:03;8.50;;;4.10;;
35803;SDS011;21924;51.934;7.414;2023-05-31T09:02:55;11.68;;;4.40;;
35803;SDS011;21924;51.934;7.414;2023-05-31T09:05:41;12.73;;;4.85;;
35803;SDS011;21924;51.934;7.414;2023-05-31T09:08:25;17.70;;;5.22;;
35803;SDS011;21924;51.934;7.414;2023-05-31T09:11:10;7.57;;;4.10;;
35803;SDS011;21924;51.934;7.414;2023-05-31T09:13:55;9.05;;;4.50;;
35803;SDS011;21924;51.934;7.414;2023-05-31T09:16:40;10.93;;;4.72;;
35803;SDS011;21924;51.934;7.414;2023-05-31T09:19:24;8.52;;;3.78;;
35803;SDS011;21924;51.934;7.414;2023-05-31T09:22:09;10.02;;;4.03;;
35803;SDS011;21924;51.934;7.414;2023-05-31T09:24:57;11.10;;;4.35;;
35803;SDS011;21924;51.934;7.414;2023-05-31T09:27:42;9.38;;;4.70;;
35803;SDS011;21924;51.934;7.414;2023-05-31T09:30:27;8.85;;;4.13;;
35803;SDS011;21924;51.934;7.414;2023-05-31T09:33:12;9.82;;;4.20;;
35803;SDS011;21924;51.934;7.414;2023-05-31T09:35:57;10.02;;;4.50;;
35803;SDS011;21924;51.934;7.414;2023-05-31T09:38:41;12.00;;;4.70;;
35803;SDS011;21924;51.934;7.414;2023-05-31T09:41:26;8.05;;;3.60;;
35803;SDS011;21924;51.934;7.414;2023-05-31T09:44:10;9.68;;;3.55;;
35803;SDS011;21924;51.934;7.414;2023-05-31T09:46:54;8.88;;;4.65;;
35803;SDS011;21924;51.934;7.414;2023-05-31T09:49:39;9.27;;;3.85;;
35803;SDS011;21924;51.934;7.414;2023-05-31T09:52:26;4.78;;;3.35;;
35803;SDS011;21924;51.934;7.414;2023-05-31T09:55:12;15.55;;;3.33;;
35803;SDS011;21924;51.934;7.414;2023-05-31T09:57:57;5.32;;;3.00;;
35803;SDS011;21924;51.934;7.414;2023-05-31T10:00:44;8.90;;;3.47;;
35803;SDS011;21924;51.934;7.414;2023-05-31T10:03:31;10.95;;;2.95;;
35803;SDS011;21924;51.934;7.414;2023-05-31T10:06:17;7.05;;;4.13;;
35803;SDS011;21924;51.934;7.414;2023-05-31T10:09:05;4.93;;;3.28;;
35803;SDS011;21924;51.934;7.414;2023-05-31T10:11:51;10.30;;;2.95;;
35803;SDS011;21924;51.934;7.414;2023-05-31T10:14:38;6.53;;;2.60;;
35803;SDS011;21924;51.934;7.414;2023-05-31T10:17:29;6.10;;;2.65;;
35803;SDS011;21924;51.934;7.414;2023-05-31T10:20:19;5.13;;;2.35;;
35803;SDS011;21924;51.934;7.414;2023-05-31T10:28:47;17.13;;;2.88;;
35803;SDS011;21924;51.934;7.414;2023-05-31T10:32:10;6.50;;;2.70;;
35803;SDS011;21924;51.934;7.414;2023-05-31T10:35:02;8.40;;;2.88;;
35803;SDS011;21924;51.934;7.414;2023-05-31T10:37:47;7.80;;;2.20;;
35803;SDS011;21924;51.934;7.414;2023-05-31T10:40:41;5.38;;;2.28;;
35803;SDS011;21924;51.934;7.414;2023-05-31T10:46:27;7.95;;;2.30;;
35803;SDS011;21924;51.934;7.414;2023-05-31T10:49:14;6.85;;;2.60;;
35803;SDS011;21924;51.934;7.414;2023-05-31T10:52:05;11.07;;;3.67;;
35803;SDS011;21924;51.934;7.414;2023-05-31T10:54:52;9.43;;;2.88;;
35803;SDS011;21924;51.934;7.414;2023-05-31T10:57:36;5.53;;;2.25;;
35803;SDS011;21924;51.934;7.414;2023-05-31T11:00:21;5.88;;;2.22;;
35803;SDS011;21924;51.934;7.414;2023-05-31T11:03:06;7.78;;;3.30;;
35803;SDS011;21924;51.934;7.414;2023-05-31T11:05:54;5.63;;;2.10;;
35803;SDS011;21924;51.934;7.414;2023-05-31T11:08:59;13.88;;;2.88;;
35803;SDS011;21924;51.934;7.414;2023-05-31T11:11:45;13.65;;;2.47;;
35803;SDS011;21924;51.934;7.414;2023-05-31T11:14:33;6.25;;;2.38;;
35803;SDS011;21924;51.934;7.414;2023-05-31T11:17:19;6.30;;;2.10;;
35803;SDS011;21924;51.934;7.414;2023-05-31T11:20:04;6.22;;;2.10;;
35803;SDS011;21924;51.934;7.414;2023-05-31T11:23:22;6.68;;;1.70;;
35803;SDS011;21924;51.934;7.414;2023-05-31T11:28:52;8.05;;;1.63;;
35803;SDS011;21924;51.934;7.414;2023-05-31T11:32:04;6.55;;;1.88;;
35803;SDS011;21924;51.934;7.414;2023-05-31T11:34:49;4.32;;;1.80;;
35803;SDS011;21924;51.934;7.414;2023-05-31T11:37:43;3.70;;;1.70;;
35803;SDS011;21924;51.934;7.414;2023-05-31T11:40:28;8.15;;;2.28;;
35803;SDS011;21924;51.934;7.414;2023-05-31T11:45:59;8.38;;;2.13;;
35803;SDS011;21924;51.934;7.414;2023-05-31T11:48:46;5.63;;;2.15;;
35803;SDS011;21924;51.934;7.414;2023-05-31T11:51:30;4.03;;;2.13;;
35803;SDS011;21924;51.934;7.414;2023-05-31T11:54:15;5.25;;;1.88;;
35803;SDS011;21924;51.934;7.414;2023-05-31T11:57:00;11.70;;;2.10;;
35803;SDS011;21924;51.934;7.414;2023-05-31T11:59:48;6.05;;;1.63;;
35803;SDS011;21924;51.934;7.414;2023-05-31T12:02:33;5.00;;;1.92;;
35803;SDS011;21924;51.934;7.414;2023-05-31T12:05:18;3.97;;;1.90;;
35803;SDS011;21924;51.934;7.414;2023-05-31T12:08:02;11.02;;;1.55;;
35803;SDS011;21924;51.934;7.414;2023-05-31T12:10:46;3.53;;;1.63;;
35803;SDS011;21924;51.934;7.414;2023-05-31T12:13:31;11.52;;;2.45;;
35803;SDS011;21924;51.934;7.414;2023-05-31T12:16:16;6.13;;;1.85;;
35803;SDS011;21924;51.934;7.414;2023-05-31T12:19:00;6.25;;;1.83;;
35803;SDS011;21924;51.934;7.414;2023-05-31T12:21:45;3.63;;;1.88;;
35803;SDS011;21924;51.934;7.414;2023-05-31T12:24:30;5.55;;;1.98;;
35803;SDS011;21924;51.934;7.414;2023-05-31T12:27:15;7.72;;;1.98;;
35803;SDS011;21924;51.934;7.414;2023-05-31T12:30:00;5.70;;;1.80;;
35803;SDS011;21924;51.934;7.414;2023-05-31T12:32:45;8.73;;;2.10;;
35803;SDS011;21924;51.934;7.414;2023-05-31T12:35:30;4.32;;;1.92;;
35803;SDS011;21924;51.934;7.414;2023-05-31T12:38:27;8.30;;;1.95;;
35803;SDS011;21924;51.934;7.414;2023-05-31T12:41:12;5.18;;;2.22;;
35803;SDS011;21924;51.934;7.414;2023-05-31T12:43:57;10.30;;;1.65;;
35803;SDS011;21924;51.934;7.414;2023-05-31T12:49:27;5.53;;;1.70;;
35803;SDS011;21924;51.934;7.414;2023-05-31T12:52:14;9.60;;;2.63;;
35803;SDS011;21924;51.934;7.414;2023-05-31T12:54:58;4.00;;;1.40;;
35803;SDS011;21924;51.934;7.414;2023-05-31T12:57:44;4.78;;;1.60;;
35803;SDS011;21924;51.934;7.414;2023-05-31T13:00:28;4.82;;;1.67;;
35803;SDS011;21924;51.934;7.414;2023-05-31T13:03:13;6.00;;;1.70;;
35803;SDS011;21924;51.934;7.414;2023-05-31T13:05:58;5.22;;;1.42;;
35803;SDS011;21924;51.934;7.414;2023-05-31T13:08:42;5.20;;;2.13;;
35803;SDS011;21924;51.934;7.414;2023-05-31T13:11:27;3.33;;;1.38;;
35803;SDS011;21924;51.934;7.414;2023-05-31T13:14:12;3.08;;;1.30;;
35803;SDS011;21924;51.934;7.414;2023-05-31T13:16:56;3.72;;;1.48;;
35803;SDS011;21924;51.934;7.414;2023-05-31T13:19:41;3.20;;;1.40;;
35803;SDS011;21924;51.934;7.414;2023-05-31T13:38:52;3.28;;;1.20;;
35803;SDS011;21924;51.934;7.414;2023-05-31T13:41:37;4.57;;;1.10;;
35803;SDS011;21924;51.934;7.414;2023-05-31T13:44:21;5.18;;;1.20;;
35803;SDS011;21924;51.934;7.414;2023-05-31T13:47:05;3.60;;;1.23;;
35803;SDS011;21924;51.934;7.414;2023-05-31T13:49:50;3.33;;;1.35;;
35803;SDS011;21924;51.934;7.414;2023-05-31T13:52:34;6.78;;;1.52;;
35803;SDS011;21924;51.934;7.414;2023-05-31T13:55:19;6.10;;;1.25;;
35803;SDS011;21924;51.934;7.414;2023-05-31T13:58:04;4.68;;;1.65;;
35803;SDS011;21924;51.934;7.414;2023-05-31T14:00:48;3.67;;;1.48;;
35803;SDS011;21924;51.934;7.414;2023-05-31T14:03:34;7.22;;;1.27;;
35803;SDS011;21924;51.934;7.414;2023-05-31T14:06:19;6.22;;;1.58;;
35803;SDS011;21924;51.934;7.414;2023-05-31T14:09:03;3.05;;;1.33;;
35803;SDS011;21924;51.934;7.414;2023-05-31T14:11:48;7.97;;;1.63;;
35803;SDS011;21924;51.934;7.414;2023-05-31T14:14:32;3.83;;;1.45;;
35803;SDS011;21924;51.934;7.414;2023-05-31T14:17:16;3.47;;;1.10;;
35803;SDS011;21924;51.934;7.414;2023-05-31T14:20:00;5.88;;;1.35;;
35803;SDS011;21924;51.934;7.414;2023-05-31T14:22:47;4.78;;;1.42;;
35803;SDS011;21924;51.934;7.414;2023-05-31T14:25:31;6.27;;;1.40;;
35803;SDS011;21924;51.934;7.414;2023-05-31T14:28:16;3.22;;;1.17;;
35803;SDS011;21924;51.934;7.414;2023-05-31T14:31:00;3.17;;;1.23;;
35803;SDS011;21924;51.934;7.414;2023-05-31T14:33:45;2.97;;;1.23;;
35803;SDS011;21924;51.934;7.414;2023-05-31T14:36:29;3.70;;;1.30;;
35803;SDS011;21924;51.934;7.414;2023-05-31T14:39:14;3.90;;;1.35;;
35803;SDS011;21924;51.934;7.414;2023-05-31T14:41:58;5.70;;;1.80;;
35803;SDS011;21924;51.934;7.414;2023-05-31T14:44:42;3.75;;;1.30;;
35803;SDS011;21924;51.934;7.414;2023-05-31T14:47:27;6.22;;;1.80;;
35803;SDS011;21924;51.934;7.414;2023-05-31T14:50:11;7.40;;;1.63;;
35803;SDS011;21924;51.934;7.414;2023-05-31T14:52:55;7.50;;;2.17;;
35803;SDS011;21924;51.934;7.414;2023-05-31T14:55:40;3.20;;;1.27;;
35803;SDS011;21924;51.934;7.414;2023-05-31T14:58:24;5.97;;;1.27;;
35803;SDS011;21924;51.934;7.414;2023-05-31T15:01:09;3.58;;;1.23;;
35803;SDS011;21924;51.934;7.414;2023-05-31T15:03:53;4.93;;;1.38;;
35803;SDS011;21924;51.934;7.414;2023-05-31T15:06:39;3.30;;;1.38;;
35803;SDS011;21924;51.934;7.414;2023-05-31T15:09:24;4.78;;;1.38;;
35803;SDS011;21924;51.934;7.414;2023-05-31T15:12:09;4.13;;;1.15;;
35803;SDS011;21924;51.934;7.414;2023-05-31T15:14:53;2.92;;;1.35;;
35803;SDS011;21924;51.934;7.414;2023-05-31T15:17:38;12.82;;;2.38;;
35803;SDS011;21924;51.934;7.414;2023-05-31T15:20:23;3.83;;;1.45;;
35803;SDS011;21924;51.934;7.414;2023-05-31T15:23:08;4.35;;;1.35;;
35803;SDS011;21924;51.934;7.414;2023-05-31T15:25:52;5.53;;;1.30;;
35803;SDS011;21924;51.934;7.414;2023-05-31T15:28:37;7.38;;;1.73;;
35803;SDS011;21924;51.934;7.414;2023-05-31T15:31:21;4.07;;;1.75;;
35803;SDS011;21924;51.934;7.414;2023-05-31T15:34:05;6.90;;;1.80;;
35803;SDS011;21924;51.934;7.414;2023-05-31T15:36:50;6.78;;;1.80;;
35803;SDS011;21924;51.934;7.414;2023-05-31T15:39:34;11.43;;;2.00;;
35803;SDS011;21924;51.934;7.414;2023-05-31T15:42:19;6.57;;;1.83;;
35803;SDS011;21924;51.934;7.414;2023-05-31T17:48:17;4.45;;;1.77;;
35803;SDS011;21924;51.934;7.414;2023-05-31T17:51:01;6.32;;;1.90;;
35803;SDS011;21924;51.934;7.414;2023-05-31T17:53:46;3.88;;;1.70;;
35803;SDS011;21924;51.934;7.414;2023-05-31T17:56:30;6.05;;;1.70;;
35803;SDS011;21924;51.934;7.414;2023-05-31T17:59:15;10.98;;;1.90;;
35803;SDS011;21924;51.934;7.414;2023-05-31T18:01:59;110.70;;;8.65;;
35803;SDS011;21924;51.934;7.414;2023-05-31T18:04:43;4.15;;;1.50;;
35803;SDS011;21924;51.934;7.414;2023-05-31T18:07:28;4.68;;;1.75;;
35803;SDS011;21924;51.934;7.414;2023-05-31T18:10:12;4.88;;;1.85;;
35803;SDS011;21924;51.934;7.414;2023-05-31T18:12:57;12.85;;;2.20;;
35803;SDS011;21924;51.934;7.414;2023-05-31T18:15:41;4.28;;;1.73;;
35803;SDS011;21924;51.934;7.414;2023-05-31T18:18:25;4.45;;;1.73;;
35803;SDS011;21924;51.934;7.414;2023-05-31T18:21:10;5.70;;;1.87;;
35803;SDS011;21924;51.934;7.414;2023-05-31T18:23:54;9.25;;;1.48;;
35803;SDS011;21924;51.934;7.414;2023-05-31T18:26:39;6.18;;;1.65;;
35803;SDS011;21924;51.934;7.414;2023-05-31T18:29:23;3.75;;;1.77;;
35803;SDS011;21924;51.934;7.414;2023-05-31T18:32:08;8.77;;;2.28;;
35803;SDS011;21924;51.934;7.414;2023-05-31T18:34:52;5.05;;;1.52;;
35803;SDS011;21924;51.934;7.414;2023-05-31T18:37:36;7.93;;;2.33;;
35803;SDS011;21924;51.934;7.414;2023-05-31T18:40:21;7.22;;;2.17;;
35803;SDS011;21924;51.934;7.414;2023-05-31T18:43:06;6.35;;;2.45;;
35803;SDS011;21924;51.934;7.414;2023-05-31T18:45:50;3.22;;;1.92;;
35803;SDS011;21924;51.934;7.414;2023-05-31T18:48:34;6.60;;;1.88;;
35803;SDS011;21924;51.934;7.414;2023-05-31T18:51:20;6.50;;;1.98;;
35803;SDS011;21924;51.934;7.414;2023-05-31T18:54:05;5.07;;;2.13;;
35803;SDS011;21924;51.934;7.414;2023-05-31T18:56:49;7.75;;;2.15;;
35803;SDS011;21924;51.934;7.414;2023-05-31T18:59:35;5.72;;;1.98;;
35803;SDS011;21924;51.934;7.414;2023-05-31T19:02:20;6.32;;;2.55;;
35803;SDS011;21924;51.934;7.414;2023-05-31T19:05:04;8.10;;;2.28;;
35803;SDS011;21924;51.934;7.414;2023-05-31T19:07:49;6.85;;;2.05;;
35803;SDS011;21924;51.934;7.414;2023-05-31T19:10:33;4.57;;;2.47;;
35803;SDS011;21924;51.934;7.414;2023-05-31T19:13:17;5.72;;;2.15;;